createdAt,value
2018-09-11T00:01:14.654Z,14.90
2018-09-11T00:03:43.389Z,14.90
2018-09-11T00:06:12.208Z,14.80
2018-09-11T00:08:40.788Z,14.80
2018-09-11T00:11:09.656Z,14.80
2018-09-11T00:13:38.392Z,14.80
2018-09-11T00:16:07.108Z,14.80
2018-09-11T00:18:35.822Z,14.90
2018-09-11T00:21:04.538Z,14.80
2018-09-11T00:23:33.253Z,14.90
2018-09-11T00:26:01.992Z,14.90
2018-09-11T00:28:30.716Z,15.00
2018-09-11T00:30:59.500Z,15.00
2018-09-11T00:33:28.235Z,15.00
2018-09-11T00:35:57.131Z,15.00
2018-09-11T00:38:25.746Z,15.00
2018-09-11T00:40:54.522Z,14.90
2018-09-11T00:43:23.318Z,15.00
2018-09-11T00:45:52.166Z,14.90
2018-09-11T00:48:21.108Z,14.90
2018-09-11T00:50:49.724Z,14.90
2018-09-11T00:53:18.918Z,14.80
2018-09-11T00:55:47.656Z,14.80
2018-09-11T00:58:16.106Z,14.80
2018-09-11T01:00:45.026Z,14.80
2018-09-11T01:03:13.821Z,14.80
2018-09-11T01:05:42.606Z,14.80
2018-09-11T01:08:11.275Z,14.80
2018-09-11T01:10:39.948Z,14.70
2018-09-11T01:13:08.623Z,14.70
2018-09-11T01:15:37.318Z,14.70
2018-09-11T01:18:05.957Z,14.70
2018-09-11T01:20:34.730Z,14.70
2018-09-11T01:23:03.418Z,14.70
2018-09-11T01:25:32.301Z,14.70
2018-09-11T01:28:01.047Z,14.70
2018-09-11T01:30:29.655Z,14.70
2018-09-11T01:32:58.427Z,14.70
2018-09-11T01:35:27.222Z,14.60
2018-09-11T01:37:55.959Z,14.60
2018-09-11T01:40:24.443Z,14.60
2018-09-11T01:42:53.192Z,14.60
2018-09-11T01:45:21.744Z,14.60
2018-09-11T01:47:50.480Z,14.60
2018-09-11T01:50:19.321Z,14.60
2018-09-11T01:52:47.851Z,14.60
2018-09-11T01:55:16.546Z,14.60
2018-09-11T01:57:45.244Z,14.60
2018-09-11T02:00:16.661Z,14.60
2018-09-11T02:02:45.773Z,14.60
2018-09-11T02:05:14.552Z,14.50
2018-09-11T02:07:43.984Z,14.50
2018-09-11T02:10:13.304Z,14.50
2018-09-11T02:12:42.134Z,14.40
2018-09-11T02:15:11.679Z,14.40
2018-09-11T02:17:41.226Z,14.40
2018-09-11T02:20:10.059Z,14.40
2018-09-11T02:22:38.780Z,14.40
2018-09-11T02:25:07.593Z,14.40
2018-09-11T02:27:36.588Z,14.30
2018-09-11T02:30:05.215Z,14.30
2018-09-11T02:32:33.879Z,14.40
2018-09-11T02:35:02.615Z,14.40
2018-09-11T02:37:31.231Z,14.50
2018-09-11T02:39:59.791Z,14.50
2018-09-11T02:42:28.600Z,14.60
2018-09-11T02:44:57.146Z,14.60
2018-09-11T02:47:25.851Z,14.70
2018-09-11T02:49:54.516Z,14.70
2018-09-11T02:52:23.123Z,14.80
2018-09-11T02:54:51.897Z,14.70
2018-09-11T02:57:20.612Z,14.70
2018-09-11T02:59:49.269Z,14.80
2018-09-11T03:02:19.031Z,14.80
2018-09-11T03:04:47.639Z,14.80
2018-09-11T03:07:16.260Z,14.80
2018-09-11T03:09:44.684Z,14.80
2018-09-11T03:12:13.267Z,14.90
2018-09-11T03:14:41.771Z,15.00
2018-09-11T03:17:10.417Z,15.10
2018-09-11T03:19:38.842Z,15.20
2018-09-11T03:22:07.527Z,15.20
2018-09-11T03:24:36.142Z,15.30
2018-09-11T03:27:04.613Z,15.40
2018-09-11T03:29:33.148Z,15.40
2018-09-11T03:32:02.232Z,15.50
2018-09-11T03:34:30.844Z,15.60
2018-09-11T03:36:59.509Z,15.60
2018-09-11T03:39:28.084Z,15.60
2018-09-11T03:41:56.613Z,15.70
2018-09-11T03:44:25.126Z,15.70
2018-09-11T03:46:53.595Z,15.80
2018-09-11T03:49:21.997Z,15.80
2018-09-11T03:51:50.859Z,15.90
2018-09-11T03:54:19.296Z,15.90
2018-09-11T03:56:47.687Z,15.90
2018-09-11T03:59:16.167Z,15.90
2018-09-11T04:01:44.774Z,16.00
2018-09-11T04:04:16.203Z,16.00
2018-09-11T04:06:44.727Z,16.00
2018-09-11T04:09:13.719Z,16.10
2018-09-11T04:11:42.850Z,16.10
2018-09-11T04:14:11.455Z,16.10
2018-09-11T04:16:40.165Z,16.10
2018-09-11T04:19:08.658Z,16.10
2018-09-11T04:21:37.236Z,16.10
2018-09-11T04:24:05.844Z,16.10
2018-09-11T04:26:34.267Z,16.20
2018-09-11T04:29:03.022Z,16.10
2018-09-11T04:31:31.463Z,16.20
2018-09-11T04:33:59.999Z,16.20
2018-09-11T04:36:28.555Z,16.20
2018-09-11T04:38:56.885Z,16.20
2018-09-11T04:41:25.546Z,16.20
2018-09-11T04:43:54.025Z,16.20
2018-09-11T04:46:22.751Z,16.20
2018-09-11T04:48:51.325Z,16.20
2018-09-11T04:51:20.281Z,16.20
2018-09-11T04:53:49.296Z,16.20
2018-09-11T04:56:17.835Z,16.20
2018-09-11T04:58:46.804Z,16.20
2018-09-11T05:01:15.373Z,16.20
2018-09-11T05:03:44.217Z,16.20
2018-09-11T05:06:13.214Z,16.20
2018-09-11T05:08:41.752Z,16.20
2018-09-11T05:11:10.383Z,16.20
2018-09-11T05:13:39.024Z,16.00
2018-09-11T05:16:07.571Z,15.90
2018-09-11T05:18:35.982Z,15.80
2018-09-11T05:21:04.659Z,15.80
2018-09-11T05:23:33.331Z,15.70
2018-09-11T05:26:02.154Z,15.70
2018-09-11T05:28:30.751Z,15.60
2018-09-11T05:30:59.595Z,15.60
2018-09-11T05:33:28.235Z,15.60
2018-09-11T05:35:57.005Z,15.60
2018-09-11T05:38:25.497Z,15.60
2018-09-11T05:40:54.266Z,15.60
2018-09-11T05:43:23.009Z,15.70
2018-09-11T05:45:51.406Z,15.70
2018-09-11T05:48:20.067Z,15.80
2018-09-11T05:50:49.211Z,15.80
2018-09-11T05:53:17.670Z,15.80
2018-09-11T05:55:46.318Z,15.80
2018-09-11T05:58:14.880Z,15.90
2018-09-11T06:00:43.485Z,16.00
2018-09-11T06:03:11.940Z,16.00
2018-09-11T06:05:40.592Z,16.00
2018-09-11T06:08:09.370Z,16.10
2018-09-11T06:10:37.862Z,16.20
2018-09-11T06:13:06.733Z,16.20
2018-09-11T06:15:35.679Z,16.30
2018-09-11T06:18:04.526Z,16.40
2018-09-11T06:20:33.183Z,16.40
2018-09-11T06:23:01.868Z,16.50
2018-09-11T06:25:30.394Z,16.60
2018-09-11T06:27:58.883Z,16.70
2018-09-11T06:30:27.415Z,16.80
2018-09-11T06:32:56.048Z,17.00
2018-09-11T06:35:24.888Z,17.20
2018-09-11T06:37:53.496Z,17.20
2018-09-11T06:40:21.949Z,17.30
2018-09-11T06:42:50.538Z,17.60
2018-09-11T06:45:19.001Z,17.70
2018-09-11T06:47:47.484Z,17.90
2018-09-11T06:50:15.906Z,18.30
2018-09-11T06:52:44.820Z,18.90
2018-09-11T06:55:13.564Z,19.60
2018-09-11T06:57:42.027Z,20.40
2018-09-11T07:00:10.575Z,20.70
2018-09-11T07:02:39.477Z,21.60
2018-09-11T07:05:07.927Z,21.00
2018-09-11T07:07:36.477Z,20.50
2018-09-11T07:10:05.831Z,20.50
2018-09-11T07:12:34.283Z,20.50
2018-09-11T07:15:02.880Z,20.60
2018-09-11T07:17:31.442Z,21.40
2018-09-11T07:19:59.994Z,21.70
2018-09-11T07:22:28.296Z,21.20
2018-09-11T07:24:56.848Z,20.90
2018-09-11T07:27:25.378Z,20.30
2018-09-11T07:29:53.915Z,20.30
2018-09-11T07:32:22.715Z,20.80
2018-09-11T07:34:51.104Z,21.50
2018-09-11T07:37:19.950Z,21.80
2018-09-11T07:39:48.459Z,21.60
2018-09-11T07:42:16.912Z,21.70
2018-09-11T07:44:45.291Z,21.50
2018-09-11T07:47:13.922Z,21.40
2018-09-11T07:49:42.588Z,21.70
2018-09-11T07:52:11.084Z,22.00
2018-09-11T07:54:39.700Z,22.50
2018-09-11T07:57:08.321Z,22.80
2018-09-11T07:59:37.105Z,23.60
2018-09-11T08:02:06.240Z,24.20
2018-09-11T08:04:34.881Z,25.30
2018-09-11T08:07:03.415Z,25.80
2018-09-11T08:09:32.202Z,25.40
2018-09-11T08:12:00.889Z,25.70
2018-09-11T08:14:29.940Z,26.10
2018-09-11T08:16:58.490Z,26.90
2018-09-11T08:19:27.190Z,26.60
2018-09-11T08:21:55.642Z,27.10
2018-09-11T08:24:24.350Z,26.90
2018-09-11T08:26:52.756Z,27.10
2018-09-11T08:29:21.428Z,27.40
2018-09-11T08:31:49.903Z,26.90
2018-09-11T08:34:18.621Z,27.30
2018-09-11T08:36:47.937Z,28.30
2018-09-11T08:39:16.371Z,27.60
2018-09-11T08:41:44.783Z,27.00
2018-09-11T08:44:13.260Z,26.90
2018-09-11T08:46:41.657Z,26.80
2018-09-11T08:49:10.178Z,28.10
2018-09-11T08:51:38.700Z,28.00
2018-09-11T08:54:07.360Z,27.00
2018-09-11T08:56:35.810Z,27.10
2018-09-11T08:59:04.314Z,27.50
2018-09-11T09:01:32.903Z,28.00
2018-09-11T09:04:01.355Z,27.10
2018-09-11T09:06:29.816Z,27.80
2018-09-11T09:08:58.555Z,28.00
2018-09-11T09:11:27.091Z,28.50
2018-09-11T09:13:55.555Z,27.50
2018-09-11T09:16:23.989Z,26.80
2018-09-11T09:18:52.632Z,27.80
2018-09-11T09:21:21.086Z,28.20
2018-09-11T09:23:49.704Z,28.00
2018-09-11T09:26:18.136Z,27.60
2018-09-11T09:28:46.797Z,26.80
2018-09-11T09:31:15.235Z,27.00
2018-09-11T09:33:43.700Z,27.20
2018-09-11T09:36:12.201Z,27.90
2018-09-11T09:38:40.676Z,28.00
2018-09-11T09:41:09.199Z,27.10
2018-09-11T09:43:37.684Z,26.20
2018-09-11T09:46:06.527Z,25.80
2018-09-11T09:48:35.008Z,25.80
2018-09-11T09:51:03.671Z,25.20
2018-09-11T09:53:32.226Z,24.90
2018-09-11T09:56:00.723Z,25.00
2018-09-11T09:58:29.851Z,24.70
2018-09-11T10:01:03.963Z,24.60
2018-09-11T10:03:32.364Z,24.40
2018-09-11T10:06:00.883Z,24.30
2018-09-11T10:08:29.351Z,24.10
2018-09-11T10:10:57.714Z,24.40
2018-09-11T10:13:26.235Z,24.00
2018-09-11T10:15:54.832Z,24.10
2018-09-11T10:18:23.248Z,24.20
2018-09-11T10:20:51.861Z,24.10
2018-09-11T10:23:20.368Z,24.30
2018-09-11T10:25:48.911Z,24.40
2018-09-11T10:28:17.483Z,24.40
2018-09-11T10:30:45.965Z,24.20
2018-09-11T10:33:14.450Z,24.60
2018-09-11T10:35:42.808Z,24.40
2018-09-11T10:38:11.368Z,24.40
2018-09-11T10:40:39.915Z,24.20
2018-09-11T10:43:08.415Z,24.20
2018-09-11T10:45:37.032Z,24.30
2018-09-11T10:48:05.935Z,24.40
2018-09-11T10:50:34.464Z,24.40
2018-09-11T10:53:02.959Z,24.50
2018-09-11T10:55:31.811Z,24.50
2018-09-11T10:58:00.581Z,24.50
2018-09-11T11:00:30.275Z,24.40
2018-09-11T11:02:58.784Z,24.50
2018-09-11T11:05:27.736Z,24.60
2018-09-11T11:07:56.353Z,24.60
2018-09-11T11:10:25.444Z,24.70
2018-09-11T11:12:55.647Z,24.60
2018-09-11T11:15:25.278Z,24.70
2018-09-11T11:17:54.374Z,24.80
2018-09-11T11:20:22.911Z,24.80
2018-09-11T11:22:51.497Z,25.00
2018-09-11T11:25:19.948Z,25.10
2018-09-11T11:27:48.419Z,25.10
2018-09-11T11:30:16.912Z,24.90
2018-09-11T11:32:45.450Z,25.10
2018-09-11T11:35:14.514Z,24.80
2018-09-11T11:37:43.149Z,24.80
2018-09-11T11:40:11.750Z,24.90
2018-09-11T11:42:40.250Z,25.00
2018-09-11T11:45:09.640Z,25.00
2018-09-11T11:47:38.092Z,24.90
2018-09-11T11:50:07.037Z,25.10
2018-09-11T11:52:35.495Z,25.20
2018-09-11T11:55:04.029Z,25.30
2018-09-11T11:57:32.935Z,25.40
2018-09-11T12:00:02.325Z,25.30
2018-09-11T12:02:31.435Z,25.10
2018-09-11T12:04:59.954Z,25.20
2018-09-11T12:07:28.661Z,25.30
2018-09-11T12:09:58.963Z,25.50
2018-09-11T12:12:28.771Z,25.40
2018-09-11T12:14:57.541Z,25.40
2018-09-11T12:17:26.378Z,25.30
2018-09-11T12:19:54.808Z,25.30
2018-09-11T12:22:23.270Z,25.20
2018-09-11T12:24:51.812Z,25.30
2018-09-11T12:27:20.392Z,25.60
2018-09-11T12:29:48.891Z,25.50
2018-09-11T12:32:17.299Z,25.20
2018-09-11T12:34:45.978Z,25.40
2018-09-11T12:37:14.466Z,25.40
2018-09-11T12:39:43.102Z,25.40
2018-09-11T12:42:11.981Z,25.30
2018-09-11T12:44:40.612Z,25.40
2018-09-11T12:47:11.484Z,25.50
2018-09-11T12:49:40.945Z,25.60
2018-09-11T12:52:09.571Z,25.50
2018-09-11T12:54:38.004Z,25.50
2018-09-11T12:57:06.379Z,25.60
2018-09-11T12:59:34.949Z,25.70
2018-09-11T13:02:03.806Z,26.00
2018-09-11T13:04:32.620Z,25.90
2018-09-11T13:07:01.059Z,26.00
2018-09-11T13:09:29.890Z,25.90
2018-09-11T13:11:58.720Z,26.00
2018-09-11T13:14:27.188Z,25.80
2018-09-11T13:16:55.804Z,26.00
2018-09-11T13:19:24.392Z,26.00
2018-09-11T13:21:52.970Z,26.00
2018-09-11T13:24:21.685Z,26.00
2018-09-11T13:26:50.387Z,26.20
2018-09-11T13:29:19.017Z,26.40
2018-09-11T13:31:48.194Z,26.30
2018-09-11T13:34:17.484Z,26.40
2018-09-11T13:36:46.016Z,26.40
2018-09-11T13:39:14.859Z,26.40
2018-09-11T13:41:43.340Z,26.60
2018-09-11T13:44:11.880Z,26.50
2018-09-11T13:46:40.488Z,26.70
2018-09-11T13:49:09.246Z,26.60
2018-09-11T13:51:37.974Z,26.60
2018-09-11T13:54:06.871Z,26.70
2018-09-11T13:56:35.335Z,26.60
2018-09-11T13:59:03.979Z,26.60
2018-09-11T14:01:33.157Z,26.50
2018-09-11T14:04:01.746Z,26.60
2018-09-11T14:06:30.718Z,26.80
2018-09-11T14:08:59.124Z,26.60
2018-09-11T14:11:28.298Z,26.70
2018-09-11T14:13:57.318Z,26.90
2018-09-11T14:16:26.376Z,26.90
2018-09-11T14:18:55.007Z,26.90
2018-09-11T14:21:24.696Z,26.90
2018-09-11T14:23:53.238Z,26.80
2018-09-11T14:26:22.545Z,26.70
2018-09-11T14:28:51.532Z,26.90
2018-09-11T14:31:20.360Z,26.70
2018-09-11T14:33:48.970Z,26.70
2018-09-11T14:36:17.621Z,26.80
2018-09-11T14:38:46.191Z,26.60
2018-09-11T14:41:14.739Z,26.60
2018-09-11T14:43:43.521Z,26.80
2018-09-11T14:46:11.896Z,26.70
2018-09-11T14:48:40.572Z,26.60
2018-09-11T14:51:09.424Z,26.80
2018-09-11T14:53:38.661Z,26.80
2018-09-11T14:56:07.524Z,26.70
2018-09-11T14:58:36.052Z,26.80
2018-09-11T15:01:04.742Z,26.80
2018-09-11T15:03:33.247Z,26.80
2018-09-11T15:06:01.961Z,26.80
2018-09-11T15:08:30.535Z,26.70
2018-09-11T15:10:59.519Z,26.80
2018-09-11T15:13:28.357Z,26.80
2018-09-11T15:15:57.018Z,26.80
2018-09-11T15:18:25.571Z,26.80
2018-09-11T15:20:55.477Z,26.80
2018-09-11T15:23:24.961Z,26.70
2018-09-11T15:25:54.081Z,26.70
2018-09-11T15:28:25.329Z,26.70
2018-09-11T15:30:53.948Z,26.70
2018-09-11T15:33:22.675Z,26.70
2018-09-11T15:35:51.456Z,26.70
2018-09-11T15:38:20.670Z,26.60
2018-09-11T15:40:50.335Z,26.70
2018-09-11T15:43:18.865Z,26.70
2018-09-11T15:45:47.471Z,26.60
2018-09-11T15:48:17.343Z,26.60
2018-09-11T15:50:46.012Z,26.60
2018-09-11T15:53:15.094Z,26.50
2018-09-11T15:55:43.844Z,26.50
2018-09-11T15:58:12.603Z,26.50
2018-09-11T16:00:41.367Z,26.50
2018-09-11T16:03:10.118Z,26.50
2018-09-11T16:05:39.065Z,26.40
2018-09-11T16:08:07.772Z,26.40
2018-09-11T16:10:36.609Z,26.40
2018-09-11T16:13:05.174Z,26.40
2018-09-11T16:15:34.788Z,26.40
2018-09-11T16:18:03.696Z,26.30
2018-09-11T16:20:32.394Z,26.30
2018-09-11T16:23:01.131Z,26.30
2018-09-11T16:25:29.827Z,26.20
2018-09-11T16:27:59.785Z,26.20
2018-09-11T16:30:28.281Z,26.20
2018-09-11T16:32:57.001Z,26.20
2018-09-11T16:35:26.056Z,26.10
2018-09-11T16:37:54.996Z,26.10
2018-09-11T16:40:23.864Z,26.00
2018-09-11T16:42:52.424Z,26.00
2018-09-11T16:45:21.180Z,25.90
2018-09-11T16:47:49.760Z,25.90
2018-09-11T16:50:18.649Z,25.90
2018-09-11T16:52:50.483Z,25.80
2018-09-11T16:55:19.362Z,25.80
2018-09-11T16:57:48.203Z,25.70
2018-09-11T17:00:18.947Z,25.70
2018-09-11T17:02:48.054Z,25.60
2018-09-11T17:05:16.630Z,25.50
2018-09-11T17:07:45.015Z,25.40
2018-09-11T17:10:13.628Z,25.40
2018-09-11T17:12:42.549Z,25.30
2018-09-11T17:15:11.997Z,25.10
2018-09-11T17:17:40.496Z,25.00
2018-09-11T17:20:09.048Z,24.90
2018-09-11T17:22:37.971Z,24.80
2018-09-11T17:25:06.473Z,24.70
2018-09-11T17:27:35.123Z,24.60
2018-09-11T17:30:03.977Z,24.50
2018-09-11T17:32:32.438Z,24.40
2018-09-11T17:35:00.947Z,24.30
2018-09-11T17:37:29.758Z,24.20
2018-09-11T17:39:58.409Z,24.10
2018-09-11T17:42:27.658Z,24.00
2018-09-11T17:44:56.269Z,23.90
2018-09-11T17:47:24.972Z,23.90
2018-09-11T17:49:53.509Z,23.70
2018-09-11T17:52:22.018Z,23.60
2018-09-11T17:54:50.577Z,23.50
2018-09-11T17:57:19.002Z,23.50
2018-09-11T17:59:48.243Z,23.50
2018-09-11T18:02:16.780Z,23.40
2018-09-11T18:04:45.386Z,23.30
2018-09-11T18:07:14.214Z,23.20
2018-09-11T18:09:43.004Z,23.10
2018-09-11T18:12:11.662Z,23.00
2018-09-11T18:14:40.123Z,22.90
2018-09-11T18:17:08.787Z,22.90
2018-09-11T18:19:37.288Z,22.70
2018-09-11T18:22:05.747Z,22.60
2018-09-11T18:24:34.211Z,22.50
2018-09-11T18:27:02.630Z,22.40
2018-09-11T18:29:31.110Z,22.30
2018-09-11T18:31:59.565Z,22.20
2018-09-11T18:34:28.069Z,22.10
2018-09-11T18:36:56.512Z,22.10
2018-09-11T18:39:24.948Z,22.00
2018-09-11T18:41:53.409Z,21.90
2018-09-11T18:44:22.614Z,21.80
2018-09-11T18:46:51.100Z,21.70
2018-09-11T18:49:19.672Z,21.60
2018-09-11T18:51:48.222Z,21.50
2018-09-11T18:54:16.675Z,21.50
2018-09-11T18:56:45.128Z,21.40
2018-09-11T18:59:13.603Z,21.30
2018-09-11T19:01:43.426Z,21.20
2018-09-11T19:04:12.052Z,21.10
2018-09-11T19:06:40.553Z,21.10
2018-09-11T19:09:10.122Z,21.00
2018-09-11T19:11:38.644Z,20.90
2018-09-11T19:14:07.767Z,20.70
2018-09-11T19:16:36.327Z,20.70
2018-09-11T19:19:04.761Z,20.60
2018-09-11T19:21:33.269Z,20.60
2018-09-11T19:24:01.886Z,20.50
2018-09-11T19:26:30.464Z,20.50
2018-09-11T19:28:59.181Z,20.40
2018-09-11T19:31:27.723Z,20.30
2018-09-11T19:33:56.268Z,20.20
2018-09-11T19:36:24.684Z,20.20
2018-09-11T19:38:53.147Z,20.10
2018-09-11T19:41:21.584Z,20.10
2018-09-11T19:43:50.098Z,20.00
2018-09-11T19:46:18.610Z,19.90
2018-09-11T19:48:47.187Z,19.90
2018-09-11T19:51:15.695Z,19.90
2018-09-11T19:53:44.120Z,19.90
2018-09-11T19:56:12.635Z,19.90
2018-09-11T19:58:41.125Z,19.90
2018-09-11T20:01:09.568Z,19.90
2018-09-11T20:03:38.220Z,19.90
2018-09-11T20:06:06.685Z,19.80
2018-09-11T20:08:35.193Z,19.70
2018-09-11T20:11:03.569Z,19.60
2018-09-11T20:13:32.025Z,19.50
2018-09-11T20:16:00.468Z,19.50
2018-09-11T20:18:29.004Z,19.30
2018-09-11T20:20:57.491Z,19.40
2018-09-11T20:23:25.952Z,19.40
2018-09-11T20:25:54.352Z,19.50
2018-09-11T20:28:22.867Z,19.40
2018-09-11T20:30:51.274Z,19.50
2018-09-11T20:33:19.809Z,19.60
2018-09-11T20:35:48.205Z,19.70
2018-09-11T20:38:16.682Z,19.70
2018-09-11T20:40:45.108Z,19.70
2018-09-11T20:43:13.534Z,19.70
2018-09-11T20:45:41.928Z,19.60
2018-09-11T20:48:10.308Z,19.50
2018-09-11T20:50:38.821Z,19.40
2018-09-11T20:53:07.614Z,19.50
2018-09-11T20:55:36.089Z,19.40
2018-09-11T20:58:04.597Z,19.50
2018-09-11T21:00:33.095Z,19.50
2018-09-11T21:03:01.594Z,19.50
2018-09-11T21:05:29.978Z,19.40
2018-09-11T21:07:58.460Z,19.40
2018-09-11T21:10:26.928Z,19.30
2018-09-11T21:12:55.395Z,19.30
2018-09-11T21:15:23.958Z,19.20
2018-09-11T21:17:52.380Z,19.10
2018-09-11T21:20:20.745Z,19.10
2018-09-11T21:22:49.384Z,19.10
2018-09-11T21:25:17.792Z,19.10
2018-09-11T21:27:46.232Z,19.10
2018-09-11T21:30:14.779Z,19.00
2018-09-11T21:32:43.279Z,19.00
2018-09-11T21:35:11.783Z,19.00
2018-09-11T21:37:40.292Z,19.00
2018-09-11T21:40:08.945Z,19.00
2018-09-11T21:42:37.625Z,19.00
2018-09-11T21:45:06.060Z,18.90
2018-09-11T21:47:34.580Z,18.90
2018-09-11T21:50:03.214Z,19.00
2018-09-11T21:52:31.654Z,18.90
2018-09-11T21:55:00.132Z,18.90
2018-09-11T21:57:28.485Z,18.80
2018-09-11T21:59:56.916Z,18.70
2018-09-11T22:02:25.303Z,18.80
2018-09-11T22:04:53.689Z,18.90
2018-09-11T22:07:22.160Z,18.90
2018-09-11T22:09:50.539Z,18.80
2018-09-11T22:12:19.069Z,18.80
2018-09-11T22:14:47.566Z,18.60
2018-09-11T22:17:15.926Z,18.70
2018-09-11T22:19:44.324Z,18.70
2018-09-11T22:22:12.827Z,18.80
2018-09-11T22:24:41.345Z,18.60
2018-09-11T22:27:09.812Z,18.50
2018-09-11T22:29:38.298Z,18.50
2018-09-11T22:32:06.854Z,18.40
2018-09-11T22:34:35.375Z,18.40
2018-09-11T22:37:03.844Z,18.30
2018-09-11T22:39:32.275Z,18.30
2018-09-11T22:42:00.697Z,18.40
2018-09-11T22:44:29.265Z,18.40
2018-09-11T22:46:57.774Z,18.40
2018-09-11T22:49:26.274Z,18.40
2018-09-11T22:51:54.785Z,18.30
2018-09-11T22:54:23.256Z,18.20
2018-09-11T22:56:51.697Z,18.10
2018-09-11T22:59:20.188Z,18.00
2018-09-11T23:01:48.721Z,18.00
2018-09-11T23:04:17.220Z,17.90
2018-09-11T23:06:45.688Z,17.80
2018-09-11T23:09:14.160Z,17.80
2018-09-11T23:11:42.602Z,17.80
2018-09-11T23:14:11.082Z,17.80
2018-09-11T23:16:39.530Z,17.80
2018-09-11T23:19:08.053Z,17.80
2018-09-11T23:21:36.565Z,17.80
2018-09-11T23:24:04.998Z,17.70
2018-09-11T23:26:33.447Z,17.70
2018-09-11T23:29:01.935Z,17.70
2018-09-11T23:31:30.372Z,17.80
2018-09-11T23:33:59.735Z,17.90
2018-09-11T23:36:28.377Z,18.00
2018-09-11T23:38:56.953Z,18.10
2018-09-11T23:41:25.478Z,18.20
2018-09-11T23:43:53.972Z,18.20
2018-09-11T23:46:22.479Z,18.20
2018-09-11T23:48:50.956Z,18.20
2018-09-11T23:51:19.564Z,18.20
2018-09-11T23:53:48.056Z,18.10
2018-09-11T23:56:16.781Z,18.10
2018-09-11T23:58:45.207Z,17.90
